Terminal Aerodrome Forecast
Issued by NWS Binghamton, NY

Home | Current Version | Previous Version | Text Only | Print | Product List | Glossary On
Versions: 1 2 3 4 5 6 7 8 9 10 11 12 13 14 15 16 17 18 19 20 21 22 23 24
000
FTUS41 KBGM 310839 AAA
TAFAVP
TAF AMD
KAVP 310839Z 3109/0106 VRB04KT P6SM BKN035 OVC050
      TEMPO 3110/3113 5SM BR OVC025
     FM311900 30007KT P6SM BKN040
     FM010300 00000KT 5SM BR SCT015 BKN050 OVC100=

USA.gov is the U.S. government's official web portal to all federal, state and local government web resources and services.